sensor_id;sensor_type;location;lat;lon;timestamp;P1;durP1;ratioP1;P2;durP2;ratioP2
13291;SDS011;6714;53.056;8.690;2023-04-24T00:00:24;1.40;;;1.40;;
13291;SDS011;6714;53.056;8.690;2023-04-24T00:03:06;1.40;;;1.40;;
13291;SDS011;6714;53.056;8.690;2023-04-24T00:05:49;1.17;;;1.17;;
13291;SDS011;6714;53.056;8.690;2023-04-24T00:08:31;1.40;;;1.40;;
13291;SDS011;6714;53.056;8.690;2023-04-24T00:11:13;1.40;;;1.30;;
13291;SDS011;6714;53.056;8.690;2023-04-24T00:13:55;1.23;;;1.23;;
13291;SDS011;6714;53.056;8.690;2023-04-24T00:16:39;1.30;;;1.20;;
13291;SDS011;6714;53.056;8.690;2023-04-24T00:19:21;1.60;;;1.50;;
13291;SDS011;6714;53.056;8.690;2023-04-24T00:22:03;1.43;;;1.40;;
13291;SDS011;6714;53.056;8.690;2023-04-24T00:24:46;1.30;;;1.30;;
13291;SDS011;6714;53.056;8.690;2023-04-24T00:27:28;1.23;;;1.20;;
13291;SDS011;6714;53.056;8.690;2023-04-24T00:30:10;1.50;;;1.40;;
13291;SDS011;6714;53.056;8.690;2023-04-24T00:32:54;1.57;;;1.47;;
13291;SDS011;6714;53.056;8.690;2023-04-24T00:38:22;1.40;;;1.40;;
13291;SDS011;6714;53.056;8.690;2023-04-24T00:41:04;1.60;;;1.50;;
13291;SDS011;6714;53.056;8.690;2023-04-24T00:43:47;1.30;;;1.30;;
13291;SDS011;6714;53.056;8.690;2023-04-24T00:46:29;1.30;;;1.20;;
13291;SDS011;6714;53.056;8.690;2023-04-24T00:49:13;1.40;;;1.30;;
13291;SDS011;6714;53.056;8.690;2023-04-24T00:51:55;1.30;;;1.30;;
13291;SDS011;6714;53.056;8.690;2023-04-24T00:54:39;1.20;;;1.20;;
13291;SDS011;6714;53.056;8.690;2023-04-24T00:57:21;1.20;;;1.20;;
13291;SDS011;6714;53.056;8.690;2023-04-24T01:00:04;1.07;;;1.07;;
13291;SDS011;6714;53.056;8.690;2023-04-24T01:02:51;1.03;;;1.03;;
13291;SDS011;6714;53.056;8.690;2023-04-24T01:05:35;1.40;;;1.30;;
13291;SDS011;6714;53.056;8.690;2023-04-24T01:08:17;1.20;;;1.20;;
13291;SDS011;6714;53.056;8.690;2023-04-24T01:11:00;1.30;;;1.20;;
13291;SDS011;6714;53.056;8.690;2023-04-24T01:13:44;1.20;;;1.20;;
13291;SDS011;6714;53.056;8.690;2023-04-24T01:16:26;1.00;;;1.00;;
13291;SDS011;6714;53.056;8.690;2023-04-24T01:19:08;1.10;;;1.10;;
13291;SDS011;6714;53.056;8.690;2023-04-24T01:21:53;1.20;;;1.20;;
13291;SDS011;6714;53.056;8.690;2023-04-24T01:24:37;1.20;;;1.20;;
13291;SDS011;6714;53.056;8.690;2023-04-24T01:27:19;1.30;;;1.30;;
13291;SDS011;6714;53.056;8.690;2023-04-24T01:30:01;1.07;;;1.07;;
13291;SDS011;6714;53.056;8.690;2023-04-24T01:32:44;1.00;;;1.00;;
13291;SDS011;6714;53.056;8.690;2023-04-24T01:35:27;0.97;;;0.97;;
13291;SDS011;6714;53.056;8.690;2023-04-24T01:38:09;1.00;;;1.00;;
13291;SDS011;6714;53.056;8.690;2023-04-24T01:40:52;1.10;;;1.10;;
13291;SDS011;6714;53.056;8.690;2023-04-24T01:43:35;1.20;;;1.10;;
13291;SDS011;6714;53.056;8.690;2023-04-24T01:46:17;1.10;;;1.10;;
13291;SDS011;6714;53.056;8.690;2023-04-24T01:49:00;1.90;;;1.00;;
13291;SDS011;6714;53.056;8.690;2023-04-24T01:51:42;1.00;;;1.00;;
13291;SDS011;6714;53.056;8.690;2023-04-24T01:54:24;1.00;;;1.00;;
13291;SDS011;6714;53.056;8.690;2023-04-24T01:57:08;0.90;;;0.90;;
13291;SDS011;6714;53.056;8.690;2023-04-24T01:59:50;1.10;;;1.10;;
13291;SDS011;6714;53.056;8.690;2023-04-24T02:02:33;0.90;;;0.90;;
13291;SDS011;6714;53.056;8.690;2023-04-24T02:05:15;1.10;;;1.10;;
13291;SDS011;6714;53.056;8.690;2023-04-24T02:07:57;1.03;;;1.00;;
13291;SDS011;6714;53.056;8.690;2023-04-24T02:10:39;1.00;;;1.00;;
13291;SDS011;6714;53.056;8.690;2023-04-24T02:13:23;0.87;;;0.87;;
13291;SDS011;6714;53.056;8.690;2023-04-24T02:16:05;1.07;;;0.97;;
13291;SDS011;6714;53.056;8.690;2023-04-24T02:18:47;1.23;;;1.13;;
13291;SDS011;6714;53.056;8.690;2023-04-24T02:21:30;1.30;;;0.80;;
13291;SDS011;6714;53.056;8.690;2023-04-24T02:24:12;0.83;;;0.83;;
13291;SDS011;6714;53.056;8.690;2023-04-24T02:26:55;1.00;;;1.00;;
13291;SDS011;6714;53.056;8.690;2023-04-24T02:29:39;1.10;;;1.10;;
13291;SDS011;6714;53.056;8.690;2023-04-24T02:32:21;1.10;;;1.10;;
13291;SDS011;6714;53.056;8.690;2023-04-24T02:35:04;1.10;;;1.10;;
13291;SDS011;6714;53.056;8.690;2023-04-24T02:37:46;1.10;;;1.10;;
13291;SDS011;6714;53.056;8.690;2023-04-24T02:40:28;1.10;;;1.10;;
13291;SDS011;6714;53.056;8.690;2023-04-24T02:43:10;1.30;;;1.30;;
13291;SDS011;6714;53.056;8.690;2023-04-24T02:45:54;1.10;;;1.10;;
13291;SDS011;6714;53.056;8.690;2023-04-24T02:48:36;1.33;;;1.23;;
13291;SDS011;6714;53.056;8.690;2023-04-24T02:51:18;1.30;;;1.30;;
13291;SDS011;6714;53.056;8.690;2023-04-24T02:54:00;1.67;;;1.57;;
13291;SDS011;6714;53.056;8.690;2023-04-24T02:56:43;0.97;;;0.97;;
13291;SDS011;6714;53.056;8.690;2023-04-24T02:59:25;1.63;;;1.53;;
13291;SDS011;6714;53.056;8.690;2023-04-24T03:02:10;1.83;;;1.67;;
13291;SDS011;6714;53.056;8.690;2023-04-24T03:04:52;1.67;;;1.60;;
13291;SDS011;6714;53.056;8.690;2023-04-24T03:07:35;1.70;;;1.33;;
13291;SDS011;6714;53.056;8.690;2023-04-24T03:10:17;1.40;;;1.40;;
13291;SDS011;6714;53.056;8.690;2023-04-24T03:12:59;2.23;;;2.13;;
13291;SDS011;6714;53.056;8.690;2023-04-24T03:15:41;1.30;;;1.20;;
13291;SDS011;6714;53.056;8.690;2023-04-24T03:18:25;2.00;;;1.90;;
13291;SDS011;6714;53.056;8.690;2023-04-24T03:21:07;1.70;;;1.70;;
13291;SDS011;6714;53.056;8.690;2023-04-24T03:23:49;1.70;;;1.60;;
13291;SDS011;6714;53.056;8.690;2023-04-24T03:26:31;2.17;;;1.87;;
13291;SDS011;6714;53.056;8.690;2023-04-24T03:29:13;1.40;;;1.40;;
13291;SDS011;6714;53.056;8.690;2023-04-24T03:31:55;1.30;;;1.30;;
13291;SDS011;6714;53.056;8.690;2023-04-24T03:34:39;1.30;;;1.30;;
13291;SDS011;6714;53.056;8.690;2023-04-24T03:37:21;1.30;;;1.30;;
13291;SDS011;6714;53.056;8.690;2023-04-24T03:40:04;1.30;;;1.30;;
13291;SDS011;6714;53.056;8.690;2023-04-24T03:42:47;1.40;;;1.40;;
13291;SDS011;6714;53.056;8.690;2023-04-24T03:45:29;1.87;;;1.57;;
13291;SDS011;6714;53.056;8.690;2023-04-24T03:48:11;1.17;;;1.17;;
13291;SDS011;6714;53.056;8.690;2023-04-24T03:50:54;1.97;;;1.73;;
13291;SDS011;6714;53.056;8.690;2023-04-24T03:53:37;1.73;;;1.40;;
13291;SDS011;6714;53.056;8.690;2023-04-24T03:56:19;1.40;;;1.30;;
13291;SDS011;6714;53.056;8.690;2023-04-24T03:59:01;1.67;;;1.57;;
13291;SDS011;6714;53.056;8.690;2023-04-24T04:01:44;1.87;;;1.30;;
13291;SDS011;6714;53.056;8.690;2023-04-24T04:04:26;1.50;;;1.50;;
13291;SDS011;6714;53.056;8.690;2023-04-24T04:07:09;2.13;;;2.03;;
13291;SDS011;6714;53.056;8.690;2023-04-24T04:09:53;1.30;;;1.30;;
13291;SDS011;6714;53.056;8.690;2023-04-24T04:12:35;1.80;;;1.70;;
13291;SDS011;6714;53.056;8.690;2023-04-24T04:15:17;1.77;;;1.67;;
13291;SDS011;6714;53.056;8.690;2023-04-24T04:17:59;1.83;;;1.73;;
13291;SDS011;6714;53.056;8.690;2023-04-24T04:20:41;1.87;;;1.77;;
13291;SDS011;6714;53.056;8.690;2023-04-24T04:23:25;1.60;;;1.50;;
13291;SDS011;6714;53.056;8.690;2023-04-24T04:26:08;1.33;;;1.27;;
13291;SDS011;6714;53.056;8.690;2023-04-24T04:28:50;2.00;;;1.80;;
13291;SDS011;6714;53.056;8.690;2023-04-24T04:31:33;1.50;;;1.50;;
13291;SDS011;6714;53.056;8.690;2023-04-24T04:34:15;1.23;;;1.23;;
13291;SDS011;6714;53.056;8.690;2023-04-24T04:36:57;1.67;;;1.57;;
13291;SDS011;6714;53.056;8.690;2023-04-24T04:39:42;1.07;;;1.07;;
13291;SDS011;6714;53.056;8.690;2023-04-24T04:42:24;1.27;;;1.27;;
13291;SDS011;6714;53.056;8.690;2023-04-24T04:45:07;1.50;;;1.50;;
13291;SDS011;6714;53.056;8.690;2023-04-24T04:47:51;2.20;;;1.43;;
13291;SDS011;6714;53.056;8.690;2023-04-24T04:50:35;1.40;;;1.30;;
13291;SDS011;6714;53.056;8.690;2023-04-24T04:53:17;1.77;;;1.67;;
13291;SDS011;6714;53.056;8.690;2023-04-24T04:56:00;1.40;;;1.40;;
13291;SDS011;6714;53.056;8.690;2023-04-24T04:58:43;1.40;;;1.30;;
13291;SDS011;6714;53.056;8.690;2023-04-24T05:01:25;1.73;;;1.63;;
13291;SDS011;6714;53.056;8.690;2023-04-24T05:04:07;2.30;;;1.73;;
13291;SDS011;6714;53.056;8.690;2023-04-24T05:06:49;1.20;;;1.20;;
13291;SDS011;6714;53.056;8.690;2023-04-24T05:09:32;1.47;;;1.43;;
13291;SDS011;6714;53.056;8.690;2023-04-24T05:12:15;1.30;;;1.30;;
13291;SDS011;6714;53.056;8.690;2023-04-24T05:14:57;1.40;;;1.40;;
13291;SDS011;6714;53.056;8.690;2023-04-24T05:17:40;1.60;;;1.50;;
13291;SDS011;6714;53.056;8.690;2023-04-24T05:20:22;1.90;;;1.53;;
13291;SDS011;6714;53.056;8.690;2023-04-24T05:23:04;1.80;;;1.70;;
13291;SDS011;6714;53.056;8.690;2023-04-24T05:25:46;1.40;;;1.40;;
13291;SDS011;6714;53.056;8.690;2023-04-24T05:28:30;1.10;;;1.10;;
13291;SDS011;6714;53.056;8.690;2023-04-24T05:31:12;1.83;;;1.73;;
13291;SDS011;6714;53.056;8.690;2023-04-24T05:33:54;2.23;;;2.13;;
13291;SDS011;6714;53.056;8.690;2023-04-24T05:36:36;1.90;;;1.80;;
13291;SDS011;6714;53.056;8.690;2023-04-24T05:39:19;2.63;;;2.50;;
13291;SDS011;6714;53.056;8.690;2023-04-24T05:42:01;1.83;;;1.73;;
13291;SDS011;6714;53.056;8.690;2023-04-24T05:44:45;3.10;;;2.90;;
13291;SDS011;6714;53.056;8.690;2023-04-24T05:47:28;2.90;;;2.70;;
13291;SDS011;6714;53.056;8.690;2023-04-24T05:50:10;4.83;;;4.43;;
13291;SDS011;6714;53.056;8.690;2023-04-24T05:52:52;2.50;;;2.17;;
13291;SDS011;6714;53.056;8.690;2023-04-24T05:55:34;4.93;;;4.53;;
13291;SDS011;6714;53.056;8.690;2023-04-24T05:58:17;3.20;;;3.00;;
13291;SDS011;6714;53.056;8.690;2023-04-24T06:01:00;3.60;;;3.40;;
13291;SDS011;6714;53.056;8.690;2023-04-24T06:03:42;4.23;;;3.93;;
13291;SDS011;6714;53.056;8.690;2023-04-24T06:06:25;2.97;;;2.77;;
13291;SDS011;6714;53.056;8.690;2023-04-24T06:09:07;3.27;;;3.07;;
13291;SDS011;6714;53.056;8.690;2023-04-24T06:11:49;1.80;;;1.70;;
13291;SDS011;6714;53.056;8.690;2023-04-24T06:14:32;2.30;;;2.10;;
13291;SDS011;6714;53.056;8.690;2023-04-24T06:17:16;4.10;;;3.80;;
13291;SDS011;6714;53.056;8.690;2023-04-24T06:19:58;2.70;;;2.50;;
13291;SDS011;6714;53.056;8.690;2023-04-24T06:22:40;2.70;;;2.60;;
13291;SDS011;6714;53.056;8.690;2023-04-24T06:25:24;2.37;;;2.23;;
13291;SDS011;6714;53.056;8.690;2023-04-24T06:28:06;3.33;;;3.10;;
13291;SDS011;6714;53.056;8.690;2023-04-24T06:30:48;4.00;;;3.60;;
13291;SDS011;6714;53.056;8.690;2023-04-24T06:33:32;1.90;;;1.80;;
13291;SDS011;6714;53.056;8.690;2023-04-24T06:36:14;2.77;;;2.63;;
13291;SDS011;6714;53.056;8.690;2023-04-24T06:38:56;3.30;;;3.03;;
13291;SDS011;6714;53.056;8.690;2023-04-24T06:41:38;4.50;;;4.10;;
13291;SDS011;6714;53.056;8.690;2023-04-24T06:44:21;3.47;;;3.17;;
13291;SDS011;6714;53.056;8.690;2023-04-24T06:47:03;4.43;;;4.03;;
13291;SDS011;6714;53.056;8.690;2023-04-24T06:49:46;3.03;;;2.73;;
13291;SDS011;6714;53.056;8.690;2023-04-24T06:52:30;3.40;;;3.10;;
13291;SDS011;6714;53.056;8.690;2023-04-24T06:55:13;3.03;;;2.73;;
13291;SDS011;6714;53.056;8.690;2023-04-24T06:57:56;4.43;;;4.03;;
13291;SDS011;6714;53.056;8.690;2023-04-24T07:00:38;3.07;;;2.83;;
13291;SDS011;6714;53.056;8.690;2023-04-24T07:03:21;3.63;;;3.33;;
13291;SDS011;6714;53.056;8.690;2023-04-24T07:06:04;4.33;;;3.93;;
13291;SDS011;6714;53.056;8.690;2023-04-24T07:08:47;3.30;;;3.00;;
13291;SDS011;6714;53.056;8.690;2023-04-24T07:11:29;5.20;;;4.77;;
13291;SDS011;6714;53.056;8.690;2023-04-24T07:14:13;3.77;;;3.47;;
13291;SDS011;6714;53.056;8.690;2023-04-24T07:16:55;3.27;;;3.07;;
13291;SDS011;6714;53.056;8.690;2023-04-24T07:19:38;3.53;;;3.23;;
13291;SDS011;6714;53.056;8.690;2023-04-24T07:22:21;4.30;;;3.87;;
13291;SDS011;6714;53.056;8.690;2023-04-24T07:25:04;3.83;;;3.53;;
13291;SDS011;6714;53.056;8.690;2023-04-24T07:27:46;4.60;;;4.27;;
13291;SDS011;6714;53.056;8.690;2023-04-24T07:30:29;3.87;;;3.33;;
13291;SDS011;6714;53.056;8.690;2023-04-24T07:33:12;3.93;;;3.63;;
13291;SDS011;6714;53.056;8.690;2023-04-24T07:35:54;3.73;;;3.43;;
13291;SDS011;6714;53.056;8.690;2023-04-24T07:38:38;4.00;;;3.60;;
13291;SDS011;6714;53.056;8.690;2023-04-24T07:41:20;3.27;;;2.97;;
13291;SDS011;6714;53.056;8.690;2023-04-24T07:44:04;4.00;;;3.60;;
13291;SDS011;6714;53.056;8.690;2023-04-24T07:46:46;3.40;;;3.10;;
13291;SDS011;6714;53.056;8.690;2023-04-24T07:49:28;4.80;;;4.40;;
13291;SDS011;6714;53.056;8.690;2023-04-24T07:52:11;4.13;;;3.33;;
13291;SDS011;6714;53.056;8.690;2023-04-24T07:54:54;3.40;;;3.10;;
13291;SDS011;6714;53.056;8.690;2023-04-24T07:57:38;3.20;;;3.00;;
13291;SDS011;6714;53.056;8.690;2023-04-24T08:00:20;3.07;;;2.77;;
13291;SDS011;6714;53.056;8.690;2023-04-24T08:03:02;3.43;;;3.23;;
13291;SDS011;6714;53.056;8.690;2023-04-24T08:05:45;2.43;;;2.30;;
13291;SDS011;6714;53.056;8.690;2023-04-24T08:08:27;2.93;;;2.77;;
13291;SDS011;6714;53.056;8.690;2023-04-24T08:11:11;3.17;;;2.97;;
13291;SDS011;6714;53.056;8.690;2023-04-24T08:13:54;4.23;;;3.83;;
13291;SDS011;6714;53.056;8.690;2023-04-24T08:16:36;3.80;;;3.30;;
13291;SDS011;6714;53.056;8.690;2023-04-24T08:19:18;4.27;;;3.97;;
13291;SDS011;6714;53.056;8.690;2023-04-24T08:22:00;2.40;;;2.30;;
13291;SDS011;6714;53.056;8.690;2023-04-24T08:24:44;2.53;;;2.33;;
13291;SDS011;6714;53.056;8.690;2023-04-24T08:27:27;3.53;;;3.33;;
13291;SDS011;6714;53.056;8.690;2023-04-24T08:30:10;4.00;;;3.80;;
13291;SDS011;6714;53.056;8.690;2023-04-24T08:32:52;2.97;;;2.77;;
13291;SDS011;6714;53.056;8.690;2023-04-24T08:35:34;3.37;;;3.07;;
13291;SDS011;6714;53.056;8.690;2023-04-24T08:38:17;2.90;;;2.70;;
13291;SDS011;6714;53.056;8.690;2023-04-24T08:40:59;4.27;;;3.97;;
13291;SDS011;6714;53.056;8.690;2023-04-24T08:43:43;3.30;;;2.97;;
13291;SDS011;6714;53.056;8.690;2023-04-24T08:46:26;3.23;;;3.00;;
13291;SDS011;6714;53.056;8.690;2023-04-24T08:49:08;3.47;;;3.17;;
13291;SDS011;6714;53.056;8.690;2023-04-24T08:51:51;3.40;;;3.20;;
13291;SDS011;6714;53.056;8.690;2023-04-24T08:54:34;3.57;;;3.27;;
13291;SDS011;6714;53.056;8.690;2023-04-24T08:57:17;3.67;;;3.47;;
13291;SDS011;6714;53.056;8.690;2023-04-24T09:00:02;4.33;;;3.63;;
13291;SDS011;6714;53.056;8.690;2023-04-24T09:02:44;3.60;;;3.30;;
13291;SDS011;6714;53.056;8.690;2023-04-24T09:05:27;4.07;;;3.73;;
13291;SDS011;6714;53.056;8.690;2023-04-24T09:08:09;5.80;;;5.30;;
13291;SDS011;6714;53.056;8.690;2023-04-24T09:10:53;4.73;;;4.23;;
13291;SDS011;6714;53.056;8.690;2023-04-24T09:13:38;4.47;;;4.07;;
13291;SDS011;6714;53.056;8.690;2023-04-24T09:16:22;4.73;;;4.33;;
13291;SDS011;6714;53.056;8.690;2023-04-24T09:19:04;5.90;;;5.33;;
13291;SDS011;6714;53.056;8.690;2023-04-24T09:21:46;6.13;;;5.10;;
13291;SDS011;6714;53.056;8.690;2023-04-24T09:24:28;5.83;;;5.30;;
13291;SDS011;6714;53.056;8.690;2023-04-24T09:27:11;5.77;;;5.17;;
13291;SDS011;6714;53.056;8.690;2023-04-24T09:29:54;4.03;;;3.73;;
13291;SDS011;6714;53.056;8.690;2023-04-24T09:32:38;5.00;;;4.60;;
13291;SDS011;6714;53.056;8.690;2023-04-24T09:35:21;4.50;;;4.10;;
13291;SDS011;6714;53.056;8.690;2023-04-24T09:38:04;4.53;;;4.13;;
13291;SDS011;6714;53.056;8.690;2023-04-24T09:40:46;5.50;;;5.00;;
13291;SDS011;6714;53.056;8.690;2023-04-24T09:43:28;4.67;;;4.30;;
13291;SDS011;6714;53.056;8.690;2023-04-24T09:46:10;6.33;;;5.60;;
13291;SDS011;6714;53.056;8.690;2023-04-24T09:48:54;5.87;;;5.37;;
13291;SDS011;6714;53.056;8.690;2023-04-24T09:51:37;6.43;;;5.83;;
13291;SDS011;6714;53.056;8.690;2023-04-24T09:54:21;4.53;;;4.13;;
13291;SDS011;6714;53.056;8.690;2023-04-24T09:57:04;6.47;;;5.87;;
13291;SDS011;6714;53.056;8.690;2023-04-24T09:59:47;5.83;;;5.23;;
13291;SDS011;6714;53.056;8.690;2023-04-24T10:02:29;5.90;;;5.40;;
13291;SDS011;6714;53.056;8.690;2023-04-24T10:05:15;5.13;;;4.73;;
13291;SDS011;6714;53.056;8.690;2023-04-24T10:07:57;6.57;;;5.70;;
13291;SDS011;6714;53.056;8.690;2023-04-24T10:10:40;5.20;;;4.70;;
13291;SDS011;6714;53.056;8.690;2023-04-24T10:13:23;5.07;;;4.67;;
13291;SDS011;6714;53.056;8.690;2023-04-24T10:16:05;4.53;;;4.23;;
13291;SDS011;6714;53.056;8.690;2023-04-24T10:18:48;5.03;;;4.60;;
13291;SDS011;6714;53.056;8.690;2023-04-24T10:21:32;5.60;;;5.13;;
13291;SDS011;6714;53.056;8.690;2023-04-24T10:24:15;5.83;;;5.33;;
13291;SDS011;6714;53.056;8.690;2023-04-24T10:26:57;4.80;;;4.40;;
13291;SDS011;6714;53.056;8.690;2023-04-24T10:29:41;5.63;;;5.17;;
13291;SDS011;6714;53.056;8.690;2023-04-24T10:32:25;5.27;;;4.77;;
13291;SDS011;6714;53.056;8.690;2023-04-24T10:35:08;5.20;;;4.80;;
13291;SDS011;6714;53.056;8.690;2023-04-24T10:37:54;5.13;;;4.70;;
13291;SDS011;6714;53.056;8.690;2023-04-24T10:40:37;5.27;;;4.87;;
13291;SDS011;6714;53.056;8.690;2023-04-24T10:43:19;4.40;;;4.10;;
13291;SDS011;6714;53.056;8.690;2023-04-24T10:46:02;4.50;;;4.20;;
13291;SDS011;6714;53.056;8.690;2023-04-24T10:48:52;6.63;;;6.07;;
13291;SDS011;6714;53.056;8.690;2023-04-24T10:51:47;5.90;;;5.40;;
13291;SDS011;6714;53.056;8.690;2023-04-24T10:54:34;4.77;;;4.47;;
13291;SDS011;6714;53.056;8.690;2023-04-24T10:57:26;6.47;;;6.03;;
13291;SDS011;6714;53.056;8.690;2023-04-24T11:00:13;3.97;;;3.77;;
13291;SDS011;6714;53.056;8.690;2023-04-24T11:02:56;5.10;;;4.70;;
13291;SDS011;6714;53.056;8.690;2023-04-24T11:08:38;5.07;;;4.67;;
13291;SDS011;6714;53.056;8.690;2023-04-24T11:11:22;4.50;;;4.20;;
13291;SDS011;6714;53.056;8.690;2023-04-24T11:14:10;4.10;;;3.80;;
13291;SDS011;6714;53.056;8.690;2023-04-24T11:16:52;5.20;;;4.80;;
13291;SDS011;6714;53.056;8.690;2023-04-24T11:19:35;4.50;;;4.20;;
13291;SDS011;6714;53.056;8.690;2023-04-24T11:22:18;4.60;;;4.27;;
13291;SDS011;6714;53.056;8.690;2023-04-24T11:25:01;4.13;;;3.93;;
13291;SDS011;6714;53.056;8.690;2023-04-24T11:27:45;4.40;;;4.10;;
13291;SDS011;6714;53.056;8.690;2023-04-24T11:30:29;4.07;;;3.87;;
13291;SDS011;6714;53.056;8.690;2023-04-24T11:33:11;3.93;;;3.73;;
13291;SDS011;6714;53.056;8.690;2023-04-24T11:35:53;3.60;;;3.40;;
13291;SDS011;6714;53.056;8.690;2023-04-24T11:38:36;4.00;;;3.80;;
13291;SDS011;6714;53.056;8.690;2023-04-24T11:41:18;3.60;;;3.40;;
13291;SDS011;6714;53.056;8.690;2023-04-24T11:44:02;4.13;;;3.93;;
13291;SDS011;6714;53.056;8.690;2023-04-24T11:46:45;4.30;;;3.97;;
13291;SDS011;6714;53.056;8.690;2023-04-24T11:49:27;3.37;;;3.17;;
13291;SDS011;6714;53.056;8.690;2023-04-24T11:52:09;3.90;;;3.60;;
13291;SDS011;6714;53.056;8.690;2023-04-24T11:54:51;3.50;;;3.30;;
13291;SDS011;6714;53.056;8.690;2023-04-24T11:57:34;3.70;;;3.27;;
13291;SDS011;6714;53.056;8.690;2023-04-24T12:00:19;3.77;;;3.50;;
13291;SDS011;6714;53.056;8.690;2023-04-24T12:03:05;3.17;;;2.97;;
13291;SDS011;6714;53.056;8.690;2023-04-24T12:05:47;3.30;;;3.10;;
13291;SDS011;6714;53.056;8.690;2023-04-24T12:08:31;3.70;;;3.50;;
13291;SDS011;6714;53.056;8.690;2023-04-24T12:11:15;3.50;;;3.30;;
13291;SDS011;6714;53.056;8.690;2023-04-24T12:13:58;4.30;;;3.90;;
13291;SDS011;6714;53.056;8.690;2023-04-24T12:16:52;5.87;;;4.27;;
13291;SDS011;6714;53.056;8.690;2023-04-24T12:19:35;3.83;;;3.53;;
13291;SDS011;6714;53.056;8.690;2023-04-24T12:22:17;4.20;;;4.00;;
13291;SDS011;6714;53.056;8.690;2023-04-24T12:25:00;3.87;;;3.57;;
13291;SDS011;6714;53.056;8.690;2023-04-24T12:27:43;3.70;;;3.50;;
13291;SDS011;6714;53.056;8.690;2023-04-24T12:30:26;3.70;;;3.40;;
13291;SDS011;6714;53.056;8.690;2023-04-24T12:33:10;4.03;;;3.73;;
13291;SDS011;6714;53.056;8.690;2023-04-24T12:35:53;4.13;;;3.90;;
13291;SDS011;6714;53.056;8.690;2023-04-24T12:38:35;3.80;;;3.60;;
13291;SDS011;6714;53.056;8.690;2023-04-24T12:41:21;4.60;;;4.17;;
13291;SDS011;6714;53.056;8.690;2023-04-24T12:44:03;3.63;;;3.43;;
13291;SDS011;6714;53.056;8.690;2023-04-24T12:46:45;3.33;;;3.13;;
13291;SDS011;6714;53.056;8.690;2023-04-24T12:49:29;3.10;;;2.80;;
13291;SDS011;6714;53.056;8.690;2023-04-24T12:52:12;2.97;;;2.77;;
13291;SDS011;6714;53.056;8.690;2023-04-24T12:54:55;2.73;;;2.53;;
13291;SDS011;6714;53.056;8.690;2023-04-24T12:57:38;2.70;;;2.50;;
13291;SDS011;6714;53.056;8.690;2023-04-24T13:00:21;3.17;;;2.63;;
13291;SDS011;6714;53.056;8.690;2023-04-24T13:03:06;3.90;;;3.50;;
13291;SDS011;6714;53.056;8.690;2023-04-24T13:05:50;3.77;;;3.10;;
13291;SDS011;6714;53.056;8.690;2023-04-24T13:08:32;3.00;;;2.80;;
13291;SDS011;6714;53.056;8.690;2023-04-24T13:11:14;5.97;;;5.37;;
13291;SDS011;6714;53.056;8.690;2023-04-24T13:13:56;4.47;;;4.10;;
13291;SDS011;6714;53.056;8.690;2023-04-24T13:16:39;5.53;;;4.50;;
13291;SDS011;6714;53.056;8.690;2023-04-24T13:19:21;4.33;;;3.90;;
13291;SDS011;6714;53.056;8.690;2023-04-24T13:22:04;3.87;;;3.57;;
13291;SDS011;6714;53.056;8.690;2023-04-24T13:24:47;5.60;;;3.97;;
13291;SDS011;6714;53.056;8.690;2023-04-24T13:27:29;3.60;;;3.30;;
13291;SDS011;6714;53.056;8.690;2023-04-24T13:30:12;3.40;;;3.10;;
13291;SDS011;6714;53.056;8.690;2023-04-24T13:32:54;3.90;;;3.60;;
13291;SDS011;6714;53.056;8.690;2023-04-24T13:35:36;3.37;;;3.10;;
13291;SDS011;6714;53.056;8.690;2023-04-24T13:38:20;3.67;;;3.10;;
13291;SDS011;6714;53.056;8.690;2023-04-24T13:41:03;5.57;;;3.93;;
13291;SDS011;6714;53.056;8.690;2023-04-24T13:43:45;3.73;;;3.40;;
13291;SDS011;6714;53.056;8.690;2023-04-24T13:46:27;4.40;;;3.20;;
13291;SDS011;6714;53.056;8.690;2023-04-24T13:49:13;3.30;;;3.00;;
13291;SDS011;6714;53.056;8.690;2023-04-24T13:51:55;3.00;;;2.80;;
13291;SDS011;6714;53.056;8.690;2023-04-24T13:54:39;3.70;;;3.33;;
13291;SDS011;6714;53.056;8.690;2023-04-24T13:57:21;5.10;;;3.37;;
13291;SDS011;6714;53.056;8.690;2023-04-24T14:00:04;4.03;;;2.93;;
13291;SDS011;6714;53.056;8.690;2023-04-24T14:02:50;3.50;;;3.10;;
13291;SDS011;6714;53.056;8.690;2023-04-24T14:05:32;4.37;;;3.30;;
13291;SDS011;6714;53.056;8.690;2023-04-24T14:08:14;5.73;;;3.23;;
13291;SDS011;6714;53.056;8.690;2023-04-24T14:10:58;3.60;;;2.90;;
13291;SDS011;6714;53.056;8.690;2023-04-24T14:13:41;3.10;;;2.80;;
13291;SDS011;6714;53.056;8.690;2023-04-24T14:16:23;3.10;;;2.83;;
13291;SDS011;6714;53.056;8.690;2023-04-24T14:19:06;4.53;;;3.10;;
13291;SDS011;6714;53.056;8.690;2023-04-24T14:21:48;3.87;;;3.33;;
13291;SDS011;6714;53.056;8.690;2023-04-24T14:24:30;4.53;;;2.97;;
13291;SDS011;6714;53.056;8.690;2023-04-24T14:27:14;3.30;;;3.00;;
13291;SDS011;6714;53.056;8.690;2023-04-24T14:29:56;3.87;;;2.80;;
13291;SDS011;6714;53.056;8.690;2023-04-24T14:32:39;4.13;;;3.30;;
13291;SDS011;6714;53.056;8.690;2023-04-24T14:35:21;3.30;;;2.97;;
13291;SDS011;6714;53.056;8.690;2023-04-24T14:38:03;3.60;;;3.00;;
13291;SDS011;6714;53.056;8.690;2023-04-24T14:40:48;4.17;;;3.00;;
13291;SDS011;6714;53.056;8.690;2023-04-24T14:43:32;3.43;;;3.17;;
13291;SDS011;6714;53.056;8.690;2023-04-24T14:46:15;3.60;;;3.17;;
13291;SDS011;6714;53.056;8.690;2023-04-24T14:48:57;5.10;;;3.87;;
13291;SDS011;6714;53.056;8.690;2023-04-24T14:51:39;3.17;;;2.87;;
13291;SDS011;6714;53.056;8.690;2023-04-24T14:54:22;4.33;;;3.40;;
13291;SDS011;6714;53.056;8.690;2023-04-24T14:57:05;5.07;;;3.13;;
13291;SDS011;6714;53.056;8.690;2023-04-24T14:59:48;2.83;;;2.63;;
13291;SDS011;6714;53.056;8.690;2023-04-24T15:02:32;4.73;;;3.13;;
13291;SDS011;6714;53.056;8.690;2023-04-24T15:05:14;5.13;;;3.43;;
13291;SDS011;6714;53.056;8.690;2023-04-24T15:07:58;3.37;;;3.03;;
13291;SDS011;6714;53.056;8.690;2023-04-24T15:10:40;5.03;;;3.37;;
13291;SDS011;6714;53.056;8.690;2023-04-24T15:13:25;5.80;;;3.80;;
13291;SDS011;6714;53.056;8.690;2023-04-24T15:16:09;4.70;;;2.97;;
13291;SDS011;6714;53.056;8.690;2023-04-24T15:18:51;4.87;;;2.90;;
13291;SDS011;6714;53.056;8.690;2023-04-24T15:21:34;3.93;;;2.77;;
13291;SDS011;6714;53.056;8.690;2023-04-24T15:24:17;3.37;;;2.70;;
13291;SDS011;6714;53.056;8.690;2023-04-24T15:26:59;3.87;;;2.67;;
13291;SDS011;6714;53.056;8.690;2023-04-24T15:29:43;3.63;;;2.83;;
13291;SDS011;6714;53.056;8.690;2023-04-24T15:32:26;3.87;;;3.07;;
13291;SDS011;6714;53.056;8.690;2023-04-24T15:35:08;4.57;;;3.20;;
13291;SDS011;6714;53.056;8.690;2023-04-24T15:37:51;3.23;;;2.60;;
13291;SDS011;6714;53.056;8.690;2023-04-24T15:40:34;3.33;;;2.50;;
13291;SDS011;6714;53.056;8.690;2023-04-24T15:43:16;3.70;;;3.00;;
13291;SDS011;6714;53.056;8.690;2023-04-24T15:45:59;3.43;;;2.80;;
13291;SDS011;6714;53.056;8.690;2023-04-24T15:48:43;4.27;;;2.87;;
13291;SDS011;6714;53.056;8.690;2023-04-24T15:51:27;3.77;;;2.90;;
13291;SDS011;6714;53.056;8.690;2023-04-24T15:54:10;3.10;;;2.60;;
13291;SDS011;6714;53.056;8.690;2023-04-24T15:56:55;3.17;;;2.40;;
13291;SDS011;6714;53.056;8.690;2023-04-24T15:59:38;3.03;;;2.20;;
13291;SDS011;6714;53.056;8.690;2023-04-24T16:02:20;3.57;;;2.67;;
13291;SDS011;6714;53.056;8.690;2023-04-24T16:05:04;2.53;;;2.30;;
13291;SDS011;6714;53.056;8.690;2023-04-24T16:07:47;3.10;;;2.40;;
13291;SDS011;6714;53.056;8.690;2023-04-24T16:10:30;2.60;;;2.40;;
13291;SDS011;6714;53.056;8.690;2023-04-24T16:13:13;3.30;;;2.20;;
13291;SDS011;6714;53.056;8.690;2023-04-24T16:15:55;3.90;;;2.40;;
13291;SDS011;6714;53.056;8.690;2023-04-24T16:18:38;2.87;;;2.33;;
13291;SDS011;6714;53.056;8.690;2023-04-24T16:21:21;3.50;;;2.70;;
13291;SDS011;6714;53.056;8.690;2023-04-24T16:24:04;4.13;;;2.30;;
13291;SDS011;6714;53.056;8.690;2023-04-24T16:26:46;4.83;;;2.50;;
13291;SDS011;6714;53.056;8.690;2023-04-24T16:29:29;2.50;;;2.30;;
13291;SDS011;6714;53.056;8.690;2023-04-24T16:32:11;3.67;;;2.20;;
13291;SDS011;6714;53.056;8.690;2023-04-24T16:34:53;2.33;;;2.13;;
13291;SDS011;6714;53.056;8.690;2023-04-24T16:37:37;2.87;;;2.30;;
13291;SDS011;6714;53.056;8.690;2023-04-24T16:40:21;4.07;;;2.30;;